sensor_id;sensor_type;location;lat;lon;timestamp;P1;durP1;ratioP1;P2;durP2;ratioP2
51724;SDS011;37801;53.224;6.552;2023-07-13T00:00:27;5.97;;;1.95;;
51724;SDS011;37801;53.224;6.552;2023-07-13T00:03:14;11.77;;;1.83;;
51724;SDS011;37801;53.224;6.552;2023-07-13T00:06:00;5.85;;;1.92;;
51724;SDS011;37801;53.224;6.552;2023-07-13T00:08:46;8.23;;;1.75;;
51724;SDS011;37801;53.224;6.552;2023-07-13T00:11:33;6.75;;;2.00;;
51724;SDS011;37801;53.224;6.552;2023-07-13T00:14:19;6.88;;;2.00;;
51724;SDS011;37801;53.224;6.552;2023-07-13T00:17:05;8.30;;;1.40;;
51724;SDS011;37801;53.224;6.552;2023-07-13T00:19:51;7.07;;;1.85;;
51724;SDS011;37801;53.224;6.552;2023-07-13T00:22:37;7.40;;;1.95;;
51724;SDS011;37801;53.224;6.552;2023-07-13T00:25:23;6.22;;;1.50;;
51724;SDS011;37801;53.224;6.552;2023-07-13T00:28:10;7.47;;;2.20;;
51724;SDS011;37801;53.224;6.552;2023-07-13T00:30:56;8.60;;;1.98;;
51724;SDS011;37801;53.224;6.552;2023-07-13T00:33:42;6.97;;;1.90;;
51724;SDS011;37801;53.224;6.552;2023-07-13T00:36:29;8.32;;;1.98;;
51724;SDS011;37801;53.224;6.552;2023-07-13T00:39:15;6.57;;;1.75;;
51724;SDS011;37801;53.224;6.552;2023-07-13T00:42:02;6.45;;;1.95;;
51724;SDS011;37801;53.224;6.552;2023-07-13T00:45:02;8.77;;;2.35;;
51724;SDS011;37801;53.224;6.552;2023-07-13T00:47:48;7.28;;;1.95;;
51724;SDS011;37801;53.224;6.552;2023-07-13T00:50:34;7.35;;;2.30;;
51724;SDS011;37801;53.224;6.552;2023-07-13T00:53:20;8.82;;;2.42;;
51724;SDS011;37801;53.224;6.552;2023-07-13T00:56:21;7.75;;;2.10;;
51724;SDS011;37801;53.224;6.552;2023-07-13T00:59:14;8.40;;;2.60;;
51724;SDS011;37801;53.224;6.552;2023-07-13T01:02:01;6.18;;;2.05;;
51724;SDS011;37801;53.224;6.552;2023-07-13T01:04:47;7.43;;;2.00;;
51724;SDS011;37801;53.224;6.552;2023-07-13T01:07:33;9.93;;;2.25;;
51724;SDS011;37801;53.224;6.552;2023-07-13T01:10:23;9.70;;;2.60;;
51724;SDS011;37801;53.224;6.552;2023-07-13T01:13:10;6.45;;;2.00;;
51724;SDS011;37801;53.224;6.552;2023-07-13T01:15:56;8.80;;;2.33;;
51724;SDS011;37801;53.224;6.552;2023-07-13T01:18:44;8.70;;;2.40;;
51724;SDS011;37801;53.224;6.552;2023-07-13T01:21:32;11.02;;;2.22;;
51724;SDS011;37801;53.224;6.552;2023-07-13T01:24:18;8.80;;;2.08;;
51724;SDS011;37801;53.224;6.552;2023-07-13T01:27:04;6.40;;;2.13;;
51724;SDS011;37801;53.224;6.552;2023-07-13T01:29:51;6.95;;;2.20;;
51724;SDS011;37801;53.224;6.552;2023-07-13T01:32:38;6.53;;;2.13;;
51724;SDS011;37801;53.224;6.552;2023-07-13T01:35:24;8.48;;;2.13;;
51724;SDS011;37801;53.224;6.552;2023-07-13T01:38:10;5.50;;;2.15;;
51724;SDS011;37801;53.224;6.552;2023-07-13T01:40:56;6.60;;;2.50;;
51724;SDS011;37801;53.224;6.552;2023-07-13T01:43:43;8.38;;;2.67;;
51724;SDS011;37801;53.224;6.552;2023-07-13T01:46:29;6.32;;;2.20;;
51724;SDS011;37801;53.224;6.552;2023-07-13T01:49:15;8.77;;;2.28;;
51724;SDS011;37801;53.224;6.552;2023-07-13T01:52:01;10.95;;;2.67;;
51724;SDS011;37801;53.224;6.552;2023-07-13T01:54:47;6.18;;;1.95;;
51724;SDS011;37801;53.224;6.552;2023-07-13T01:57:33;5.25;;;1.83;;
51724;SDS011;37801;53.224;6.552;2023-07-13T02:00:19;6.25;;;2.30;;
51724;SDS011;37801;53.224;6.552;2023-07-13T02:02:45;9.43;;;2.70;;
51724;SDS011;37801;53.224;6.552;2023-07-13T02:05:12;8.35;;;2.20;;
51724;SDS011;37801;53.224;6.552;2023-07-13T02:07:38;5.97;;;1.90;;
51724;SDS011;37801;53.224;6.552;2023-07-13T02:10:05;8.80;;;2.90;;
51724;SDS011;37801;53.224;6.552;2023-07-13T02:12:32;7.75;;;1.98;;
51724;SDS011;37801;53.224;6.552;2023-07-13T02:14:58;6.95;;;1.88;;
51724;SDS011;37801;53.224;6.552;2023-07-13T02:17:24;8.10;;;2.22;;
51724;SDS011;37801;53.224;6.552;2023-07-13T02:19:50;8.07;;;1.92;;
51724;SDS011;37801;53.224;6.552;2023-07-13T02:22:16;8.13;;;2.28;;
51724;SDS011;37801;53.224;6.552;2023-07-13T02:24:42;5.18;;;2.00;;
51724;SDS011;37801;53.224;6.552;2023-07-13T02:27:09;6.93;;;1.88;;
51724;SDS011;37801;53.224;6.552;2023-07-13T02:29:35;4.43;;;1.75;;
51724;SDS011;37801;53.224;6.552;2023-07-13T02:32:01;7.18;;;2.05;;
51724;SDS011;37801;53.224;6.552;2023-07-13T02:34:47;6.82;;;1.90;;
51724;SDS011;37801;53.224;6.552;2023-07-13T02:37:33;5.43;;;2.00;;
51724;SDS011;37801;53.224;6.552;2023-07-13T02:40:19;7.53;;;1.80;;
51724;SDS011;37801;53.224;6.552;2023-07-13T02:43:06;5.40;;;1.65;;
51724;SDS011;37801;53.224;6.552;2023-07-13T02:45:52;5.93;;;1.67;;
51724;SDS011;37801;53.224;6.552;2023-07-13T02:48:38;6.95;;;1.98;;
51724;SDS011;37801;53.224;6.552;2023-07-13T02:51:25;7.68;;;2.17;;
51724;SDS011;37801;53.224;6.552;2023-07-13T02:54:11;4.60;;;1.70;;
51724;SDS011;37801;53.224;6.552;2023-07-13T02:56:57;5.80;;;1.77;;
51724;SDS011;37801;53.224;6.552;2023-07-13T02:59:43;7.90;;;2.10;;
51724;SDS011;37801;53.224;6.552;2023-07-13T03:02:30;6.65;;;2.17;;
51724;SDS011;37801;53.224;6.552;2023-07-13T03:05:16;8.07;;;2.33;;
51724;SDS011;37801;53.224;6.552;2023-07-13T03:08:02;10.00;;;2.30;;
51724;SDS011;37801;53.224;6.552;2023-07-13T03:10:48;7.47;;;2.40;;
51724;SDS011;37801;53.224;6.552;2023-07-13T03:13:34;8.05;;;2.30;;
51724;SDS011;37801;53.224;6.552;2023-07-13T03:16:21;11.40;;;2.40;;
51724;SDS011;37801;53.224;6.552;2023-07-13T03:19:07;7.85;;;2.80;;
51724;SDS011;37801;53.224;6.552;2023-07-13T03:21:53;10.85;;;3.20;;
51724;SDS011;37801;53.224;6.552;2023-07-13T03:24:39;9.43;;;3.17;;
51724;SDS011;37801;53.224;6.552;2023-07-13T03:27:25;11.27;;;3.13;;
51724;SDS011;37801;53.224;6.552;2023-07-13T03:30:11;10.10;;;2.90;;
51724;SDS011;37801;53.224;6.552;2023-07-13T03:32:57;7.70;;;2.58;;
51724;SDS011;37801;53.224;6.552;2023-07-13T03:35:43;7.85;;;2.58;;
51724;SDS011;37801;53.224;6.552;2023-07-13T03:38:29;6.25;;;2.17;;
51724;SDS011;37801;53.224;6.552;2023-07-13T03:41:15;7.47;;;2.17;;
51724;SDS011;37801;53.224;6.552;2023-07-13T03:44:02;8.07;;;2.70;;
51724;SDS011;37801;53.224;6.552;2023-07-13T03:46:48;7.90;;;2.78;;
51724;SDS011;37801;53.224;6.552;2023-07-13T03:49:34;7.38;;;2.90;;
51724;SDS011;37801;53.224;6.552;2023-07-13T03:52:20;10.70;;;2.45;;
51724;SDS011;37801;53.224;6.552;2023-07-13T03:55:06;6.85;;;2.17;;
51724;SDS011;37801;53.224;6.552;2023-07-13T03:57:54;10.90;;;2.45;;
51724;SDS011;37801;53.224;6.552;2023-07-13T04:00:43;6.88;;;2.38;;
51724;SDS011;37801;53.224;6.552;2023-07-13T04:03:29;11.35;;;3.20;;
51724;SDS011;37801;53.224;6.552;2023-07-13T04:06:17;10.35;;;2.55;;
51724;SDS011;37801;53.224;6.552;2023-07-13T04:09:03;6.95;;;2.70;;
51724;SDS011;37801;53.224;6.552;2023-07-13T04:11:52;8.75;;;2.25;;
51724;SDS011;37801;53.224;6.552;2023-07-13T04:14:39;9.57;;;2.40;;
51724;SDS011;37801;53.224;6.552;2023-07-13T04:17:25;6.88;;;2.33;;
51724;SDS011;37801;53.224;6.552;2023-07-13T04:20:11;9.25;;;2.47;;
51724;SDS011;37801;53.224;6.552;2023-07-13T04:22:57;8.30;;;2.08;;
51724;SDS011;37801;53.224;6.552;2023-07-13T04:25:44;10.75;;;2.60;;
51724;SDS011;37801;53.224;6.552;2023-07-13T04:28:30;6.00;;;2.35;;
51724;SDS011;37801;53.224;6.552;2023-07-13T04:31:16;7.30;;;2.45;;
51724;SDS011;37801;53.224;6.552;2023-07-13T04:34:02;13.88;;;2.88;;
51724;SDS011;37801;53.224;6.552;2023-07-13T04:36:48;9.23;;;2.55;;
51724;SDS011;37801;53.224;6.552;2023-07-13T04:39:34;7.55;;;2.42;;
51724;SDS011;37801;53.224;6.552;2023-07-13T04:42:20;8.18;;;2.50;;
51724;SDS011;37801;53.224;6.552;2023-07-13T04:45:07;7.78;;;2.40;;
51724;SDS011;37801;53.224;6.552;2023-07-13T04:47:53;9.15;;;2.50;;
51724;SDS011;37801;53.224;6.552;2023-07-13T04:50:39;10.05;;;2.50;;
51724;SDS011;37801;53.224;6.552;2023-07-13T04:53:25;9.80;;;2.60;;
51724;SDS011;37801;53.224;6.552;2023-07-13T04:56:12;9.57;;;2.67;;
51724;SDS011;37801;53.224;6.552;2023-07-13T04:58:58;8.27;;;2.47;;
51724;SDS011;37801;53.224;6.552;2023-07-13T05:01:44;10.13;;;2.80;;
51724;SDS011;37801;53.224;6.552;2023-07-13T05:04:30;8.43;;;3.00;;
51724;SDS011;37801;53.224;6.552;2023-07-13T05:07:16;10.43;;;2.42;;
51724;SDS011;37801;53.224;6.552;2023-07-13T05:10:02;6.40;;;2.35;;
51724;SDS011;37801;53.224;6.552;2023-07-13T05:12:49;12.38;;;2.53;;
51724;SDS011;37801;53.224;6.552;2023-07-13T05:15:35;7.45;;;2.38;;
51724;SDS011;37801;53.224;6.552;2023-07-13T05:18:21;9.45;;;2.92;;
51724;SDS011;37801;53.224;6.552;2023-07-13T05:21:09;8.57;;;2.83;;
51724;SDS011;37801;53.224;6.552;2023-07-13T05:23:55;8.50;;;2.45;;
51724;SDS011;37801;53.224;6.552;2023-07-13T05:26:42;9.60;;;2.58;;
51724;SDS011;37801;53.224;6.552;2023-07-13T05:29:28;8.05;;;2.17;;
51724;SDS011;37801;53.224;6.552;2023-07-13T05:32:14;8.45;;;2.60;;
51724;SDS011;37801;53.224;6.552;2023-07-13T05:35:00;6.60;;;2.13;;
51724;SDS011;37801;53.224;6.552;2023-07-13T05:37:46;9.20;;;2.65;;
51724;SDS011;37801;53.224;6.552;2023-07-13T05:40:32;9.75;;;2.90;;
51724;SDS011;37801;53.224;6.552;2023-07-13T05:43:19;10.70;;;2.50;;
51724;SDS011;37801;53.224;6.552;2023-07-13T05:46:05;7.70;;;2.70;;
51724;SDS011;37801;53.224;6.552;2023-07-13T05:48:51;12.43;;;3.60;;
51724;SDS011;37801;53.224;6.552;2023-07-13T05:51:37;9.23;;;2.58;;
51724;SDS011;37801;53.224;6.552;2023-07-13T05:54:23;10.95;;;2.78;;
51724;SDS011;37801;53.224;6.552;2023-07-13T05:57:09;9.15;;;2.65;;
51724;SDS011;37801;53.224;6.552;2023-07-13T05:59:55;6.68;;;2.38;;
51724;SDS011;37801;53.224;6.552;2023-07-13T06:02:42;7.45;;;2.45;;
51724;SDS011;37801;53.224;6.552;2023-07-13T06:05:28;9.02;;;2.13;;
51724;SDS011;37801;53.224;6.552;2023-07-13T06:08:14;8.00;;;2.55;;
51724;SDS011;37801;53.224;6.552;2023-07-13T06:11:04;6.85;;;2.20;;
51724;SDS011;37801;53.224;6.552;2023-07-13T06:13:51;8.40;;;2.72;;
51724;SDS011;37801;53.224;6.552;2023-07-13T06:16:37;6.47;;;2.08;;
51724;SDS011;37801;53.224;6.552;2023-07-13T06:19:03;6.97;;;2.10;;
51724;SDS011;37801;53.224;6.552;2023-07-13T06:21:50;6.10;;;2.78;;
51724;SDS011;37801;53.224;6.552;2023-07-13T06:24:36;9.32;;;2.22;;
51724;SDS011;37801;53.224;6.552;2023-07-13T06:27:22;6.32;;;2.17;;
51724;SDS011;37801;53.224;6.552;2023-07-13T06:30:08;6.30;;;2.05;;
51724;SDS011;37801;53.224;6.552;2023-07-13T06:32:54;8.60;;;2.28;;
51724;SDS011;37801;53.224;6.552;2023-07-13T06:35:21;6.00;;;1.92;;
51724;SDS011;37801;53.224;6.552;2023-07-13T06:37:47;8.45;;;1.77;;
51724;SDS011;37801;53.224;6.552;2023-07-13T06:40:13;7.35;;;2.10;;
51724;SDS011;37801;53.224;6.552;2023-07-13T06:42:39;6.95;;;2.30;;
51724;SDS011;37801;53.224;6.552;2023-07-13T06:45:05;4.55;;;1.98;;
51724;SDS011;37801;53.224;6.552;2023-07-13T06:47:31;6.25;;;2.08;;
51724;SDS011;37801;53.224;6.552;2023-07-13T06:50:18;6.40;;;2.20;;
51724;SDS011;37801;53.224;6.552;2023-07-13T06:53:04;8.52;;;2.30;;
51724;SDS011;37801;53.224;6.552;2023-07-13T06:55:30;6.55;;;2.08;;
51724;SDS011;37801;53.224;6.552;2023-07-13T06:57:57;9.23;;;2.20;;
51724;SDS011;37801;53.224;6.552;2023-07-13T07:00:23;9.57;;;1.83;;
51724;SDS011;37801;53.224;6.552;2023-07-13T07:02:49;5.28;;;2.00;;
51724;SDS011;37801;53.224;6.552;2023-07-13T07:05:15;9.45;;;2.25;;
51724;SDS011;37801;53.224;6.552;2023-07-13T07:07:41;5.22;;;1.67;;
51724;SDS011;37801;53.224;6.552;2023-07-13T07:10:08;9.25;;;1.98;;
51724;SDS011;37801;53.224;6.552;2023-07-13T07:12:34;5.90;;;1.90;;
51724;SDS011;37801;53.224;6.552;2023-07-13T07:15:00;7.53;;;2.28;;
51724;SDS011;37801;53.224;6.552;2023-07-13T07:17:26;8.32;;;2.15;;
51724;SDS011;37801;53.224;6.552;2023-07-13T07:20:13;6.18;;;2.00;;
51724;SDS011;37801;53.224;6.552;2023-07-13T07:22:59;7.68;;;2.03;;
51724;SDS011;37801;53.224;6.552;2023-07-13T07:25:45;4.72;;;1.83;;
51724;SDS011;37801;53.224;6.552;2023-07-13T07:28:31;7.32;;;1.88;;
51724;SDS011;37801;53.224;6.552;2023-07-13T07:31:17;7.28;;;1.90;;
51724;SDS011;37801;53.224;6.552;2023-07-13T07:34:03;5.97;;;1.33;;
51724;SDS011;37801;53.224;6.552;2023-07-13T07:36:49;4.38;;;1.58;;
51724;SDS011;37801;53.224;6.552;2023-07-13T07:39:36;6.05;;;1.63;;
51724;SDS011;37801;53.224;6.552;2023-07-13T07:42:22;8.35;;;1.58;;
51724;SDS011;37801;53.224;6.552;2023-07-13T07:45:08;3.90;;;1.55;;
51724;SDS011;37801;53.224;6.552;2023-07-13T07:47:54;4.28;;;1.52;;
51724;SDS011;37801;53.224;6.552;2023-07-13T07:50:41;3.58;;;1.27;;
51724;SDS011;37801;53.224;6.552;2023-07-13T07:53:27;4.35;;;1.58;;
51724;SDS011;37801;53.224;6.552;2023-07-13T07:56:13;5.93;;;1.80;;
51724;SDS011;37801;53.224;6.552;2023-07-13T07:58:59;4.72;;;1.58;;
51724;SDS011;37801;53.224;6.552;2023-07-13T08:01:45;4.72;;;1.80;;
51724;SDS011;37801;53.224;6.552;2023-07-13T08:04:31;7.05;;;2.50;;
51724;SDS011;37801;53.224;6.552;2023-07-13T08:07:17;5.03;;;1.73;;
51724;SDS011;37801;53.224;6.552;2023-07-13T08:10:07;5.47;;;1.50;;
51724;SDS011;37801;53.224;6.552;2023-07-13T08:12:53;3.53;;;1.60;;
51724;SDS011;37801;53.224;6.552;2023-07-13T08:15:39;5.55;;;1.40;;
51724;SDS011;37801;53.224;6.552;2023-07-13T08:18:26;3.67;;;1.30;;
51724;SDS011;37801;53.224;6.552;2023-07-13T08:21:12;4.40;;;1.20;;
51724;SDS011;37801;53.224;6.552;2023-07-13T08:23:58;3.85;;;1.30;;
51724;SDS011;37801;53.224;6.552;2023-07-13T08:26:44;6.78;;;1.42;;
51724;SDS011;37801;53.224;6.552;2023-07-13T08:29:33;3.70;;;1.40;;
51724;SDS011;37801;53.224;6.552;2023-07-13T08:32:20;4.70;;;1.45;;
51724;SDS011;37801;53.224;6.552;2023-07-13T08:35:07;5.70;;;1.73;;
51724;SDS011;37801;53.224;6.552;2023-07-13T08:37:53;5.20;;;1.40;;
51724;SDS011;37801;53.224;6.552;2023-07-13T08:40:39;7.18;;;1.75;;
51724;SDS011;37801;53.224;6.552;2023-07-13T08:43:30;5.25;;;2.08;;
51724;SDS011;37801;53.224;6.552;2023-07-13T08:46:36;5.15;;;1.92;;
51724;SDS011;37801;53.224;6.552;2023-07-13T08:49:23;5.40;;;1.77;;
51724;SDS011;37801;53.224;6.552;2023-07-13T08:51:51;4.10;;;1.95;;
51724;SDS011;37801;53.224;6.552;2023-07-13T08:54:20;6.60;;;2.33;;
51724;SDS011;37801;53.224;6.552;2023-07-13T08:56:47;6.10;;;1.75;;
51724;SDS011;37801;53.224;6.552;2023-07-13T08:59:18;4.13;;;1.83;;
51724;SDS011;37801;53.224;6.552;2023-07-13T09:01:47;5.13;;;1.60;;
51724;SDS011;37801;53.224;6.552;2023-07-13T09:05:22;5.85;;;1.65;;
51724;SDS011;37801;53.224;6.552;2023-07-13T09:16:13;5.40;;;1.80;;
51724;SDS011;37801;53.224;6.552;2023-07-13T09:19:02;4.47;;;1.60;;
51724;SDS011;37801;53.224;6.552;2023-07-13T09:21:50;5.68;;;1.98;;
51724;SDS011;37801;53.224;6.552;2023-07-13T09:24:38;4.43;;;1.67;;
51724;SDS011;37801;53.224;6.552;2023-07-13T09:27:29;4.60;;;1.80;;
51724;SDS011;37801;53.224;6.552;2023-07-13T09:33:02;5.40;;;1.75;;
51724;SDS011;37801;53.224;6.552;2023-07-13T09:35:48;4.50;;;1.60;;
51724;SDS011;37801;53.224;6.552;2023-07-13T09:38:34;4.57;;;1.45;;
51724;SDS011;37801;53.224;6.552;2023-07-13T09:44:14;4.90;;;1.65;;
51724;SDS011;37801;53.224;6.552;2023-07-13T09:47:01;4.53;;;1.40;;
51724;SDS011;37801;53.224;6.552;2023-07-13T09:49:47;6.45;;;1.65;;
51724;SDS011;37801;53.224;6.552;2023-07-13T09:52:44;4.95;;;1.70;;
51724;SDS011;37801;53.224;6.552;2023-07-13T09:55:37;4.63;;;1.58;;
51724;SDS011;37801;53.224;6.552;2023-07-13T10:00:30;4.57;;;1.45;;
51724;SDS011;37801;53.224;6.552;2023-07-13T10:03:01;5.63;;;1.20;;
51724;SDS011;37801;53.224;6.552;2023-07-13T10:05:36;4.65;;;1.50;;
51724;SDS011;37801;53.224;6.552;2023-07-13T10:08:03;3.90;;;1.25;;
51724;SDS011;37801;53.224;6.552;2023-07-13T10:10:32;3.58;;;1.13;;
51724;SDS011;37801;53.224;6.552;2023-07-13T10:13:26;4.45;;;1.00;;
51724;SDS011;37801;53.224;6.552;2023-07-13T10:16:12;4.85;;;1.30;;
51724;SDS011;37801;53.224;6.552;2023-07-13T10:18:59;6.88;;;1.00;;
51724;SDS011;37801;53.224;6.552;2023-07-13T10:21:55;4.22;;;1.10;;
51724;SDS011;37801;53.224;6.552;2023-07-13T10:24:42;2.78;;;1.13;;
51724;SDS011;37801;53.224;6.552;2023-07-13T10:27:33;4.15;;;1.00;;
51724;SDS011;37801;53.224;6.552;2023-07-13T10:30:21;2.92;;;0.98;;
51724;SDS011;37801;53.224;6.552;2023-07-13T10:32:50;4.57;;;1.20;;
51724;SDS011;37801;53.224;6.552;2023-07-13T10:35:37;2.05;;;1.05;;
51724;SDS011;37801;53.224;6.552;2023-07-13T10:38:24;1.90;;;0.80;;
51724;SDS011;37801;53.224;6.552;2023-07-13T10:41:12;4.93;;;1.20;;
51724;SDS011;37801;53.224;6.552;2023-07-13T10:44:01;2.58;;;0.85;;
51724;SDS011;37801;53.224;6.552;2023-07-13T10:46:48;4.38;;;0.95;;
51724;SDS011;37801;53.224;6.552;2023-07-13T10:49:14;3.70;;;0.93;;
51724;SDS011;37801;53.224;6.552;2023-07-13T10:51:42;3.10;;;0.73;;
51724;SDS011;37801;53.224;6.552;2023-07-13T10:56:34;3.10;;;0.80;;
51724;SDS011;37801;53.224;6.552;2023-07-13T10:59:02;2.47;;;0.90;;
51724;SDS011;37801;53.224;6.552;2023-07-13T11:01:39;2.90;;;0.93;;
51724;SDS011;37801;53.224;6.552;2023-07-13T11:04:08;2.97;;;0.80;;
51724;SDS011;37801;53.224;6.552;2023-07-13T11:06:37;2.78;;;0.98;;
51724;SDS011;37801;53.224;6.552;2023-07-13T11:12:08;2.75;;;0.98;;
51724;SDS011;37801;53.224;6.552;2023-07-13T11:20:35;3.67;;;0.82;;
51724;SDS011;37801;53.224;6.552;2023-07-13T11:23:29;4.07;;;1.15;;
51724;SDS011;37801;53.224;6.552;2023-07-13T11:32:22;2.97;;;1.02;;
51724;SDS011;37801;53.224;6.552;2023-07-13T11:35:13;4.25;;;1.17;;
51724;SDS011;37801;53.224;6.552;2023-07-13T11:38:01;3.65;;;1.00;;
51724;SDS011;37801;53.224;6.552;2023-07-13T11:40:48;2.47;;;1.10;;
51724;SDS011;37801;53.224;6.552;2023-07-13T11:43:35;6.95;;;1.35;;
51724;SDS011;37801;53.224;6.552;2023-07-13T11:46:22;4.25;;;1.10;;
51724;SDS011;37801;53.224;6.552;2023-07-13T11:49:11;3.10;;;0.98;;
51724;SDS011;37801;53.224;6.552;2023-07-13T11:51:59;4.38;;;1.33;;
51724;SDS011;37801;53.224;6.552;2023-07-13T11:54:47;3.55;;;1.20;;
51724;SDS011;37801;53.224;6.552;2023-07-13T11:57:42;4.57;;;1.10;;
51724;SDS011;37801;53.224;6.552;2023-07-13T12:00:31;2.43;;;1.00;;
51724;SDS011;37801;53.224;6.552;2023-07-13T12:03:19;2.60;;;1.02;;
51724;SDS011;37801;53.224;6.552;2023-07-13T12:06:06;2.80;;;0.98;;
51724;SDS011;37801;53.224;6.552;2023-07-13T12:09:12;3.47;;;1.17;;
51724;SDS011;37801;53.224;6.552;2023-07-13T12:11:58;4.82;;;1.30;;
51724;SDS011;37801;53.224;6.552;2023-07-13T12:14:50;3.78;;;1.20;;
51724;SDS011;37801;53.224;6.552;2023-07-13T12:17:36;2.55;;;1.00;;
51724;SDS011;37801;53.224;6.552;2023-07-13T12:20:26;4.43;;;1.23;;
51724;SDS011;37801;53.224;6.552;2023-07-13T12:23:32;2.75;;;1.02;;
51724;SDS011;37801;53.224;6.552;2023-07-13T12:26:19;5.32;;;1.35;;
51724;SDS011;37801;53.224;6.552;2023-07-13T12:29:05;4.55;;;1.48;;
51724;SDS011;37801;53.224;6.552;2023-07-13T12:31:52;4.53;;;1.58;;
51724;SDS011;37801;53.224;6.552;2023-07-13T12:34:50;3.92;;;1.30;;
51724;SDS011;37801;53.224;6.552;2023-07-13T12:37:37;4.63;;;1.52;;
51724;SDS011;37801;53.224;6.552;2023-07-13T12:40:32;2.83;;;1.15;;
51724;SDS011;37801;53.224;6.552;2023-07-13T12:43:19;5.43;;;1.30;;
51724;SDS011;37801;53.224;6.552;2023-07-13T12:46:19;4.43;;;1.00;;
51724;SDS011;37801;53.224;6.552;2023-07-13T12:49:06;3.33;;;1.08;;
51724;SDS011;37801;53.224;6.552;2023-07-13T12:51:56;2.00;;;0.95;;
51724;SDS011;37801;53.224;6.552;2023-07-13T12:54:52;4.43;;;0.85;;
51724;SDS011;37801;53.224;6.552;2023-07-13T12:57:39;4.38;;;1.30;;
51724;SDS011;37801;53.224;6.552;2023-07-13T13:00:37;4.03;;;0.93;;
51724;SDS011;37801;53.224;6.552;2023-07-13T13:03:31;3.95;;;1.42;;
51724;SDS011;37801;53.224;6.552;2023-07-13T13:09:05;3.13;;;1.23;;
51724;SDS011;37801;53.224;6.552;2023-07-13T13:11:55;3.92;;;1.48;;
51724;SDS011;37801;53.224;6.552;2023-07-13T13:14:41;4.53;;;1.45;;
51724;SDS011;37801;53.224;6.552;2023-07-13T13:17:29;4.13;;;1.58;;
51724;SDS011;37801;53.224;6.552;2023-07-13T13:20:17;3.92;;;1.20;;
51724;SDS011;37801;53.224;6.552;2023-07-13T13:22:43;4.70;;;1.70;;
51724;SDS011;37801;53.224;6.552;2023-07-13T13:25:10;3.72;;;1.35;;
51724;SDS011;37801;53.224;6.552;2023-07-13T13:27:37;4.35;;;1.38;;
51724;SDS011;37801;53.224;6.552;2023-07-13T13:30:03;5.05;;;1.20;;
51724;SDS011;37801;53.224;6.552;2023-07-13T13:32:30;4.60;;;1.23;;
51724;SDS011;37801;53.224;6.552;2023-07-13T13:34:56;2.65;;;1.08;;
51724;SDS011;37801;53.224;6.552;2023-07-13T13:37:23;7.60;;;2.08;;
51724;SDS011;37801;53.224;6.552;2023-07-13T13:39:51;8.95;;;2.25;;
51724;SDS011;37801;53.224;6.552;2023-07-13T13:42:18;7.40;;;1.85;;
51724;SDS011;37801;53.224;6.552;2023-07-13T13:44:47;4.72;;;1.40;;
51724;SDS011;37801;53.224;6.552;2023-07-13T13:47:21;4.82;;;1.52;;
51724;SDS011;37801;53.224;6.552;2023-07-13T13:50:15;4.57;;;1.20;;
51724;SDS011;37801;53.224;6.552;2023-07-13T13:53:01;5.70;;;1.50;;
51724;SDS011;37801;53.224;6.552;2023-07-13T13:55:47;6.25;;;1.75;;
51724;SDS011;37801;53.224;6.552;2023-07-13T13:58:34;3.42;;;1.52;;
51724;SDS011;37801;53.224;6.552;2023-07-13T14:01:20;2.53;;;1.42;;
51724;SDS011;37801;53.224;6.552;2023-07-13T14:04:06;3.33;;;1.25;;
51724;SDS011;37801;53.224;6.552;2023-07-13T14:06:54;3.78;;;1.50;;
51724;SDS011;37801;53.224;6.552;2023-07-13T14:09:41;5.82;;;1.55;;
51724;SDS011;37801;53.224;6.552;2023-07-13T14:12:27;8.20;;;1.50;;
51724;SDS011;37801;53.224;6.552;2023-07-13T14:18:07;6.00;;;1.50;;
51724;SDS011;37801;53.224;6.552;2023-07-13T14:20:54;4.78;;;1.48;;
51724;SDS011;37801;53.224;6.552;2023-07-13T14:23:40;3.50;;;1.25;;
51724;SDS011;37801;53.224;6.552;2023-07-13T14:26:26;3.70;;;1.35;;
51724;SDS011;37801;53.224;6.552;2023-07-13T14:29:14;4.85;;;1.42;;
51724;SDS011;37801;53.224;6.552;2023-07-13T14:32:00;4.68;;;1.45;;
51724;SDS011;37801;53.224;6.552;2023-07-13T14:34:46;4.70;;;1.40;;
51724;SDS011;37801;53.224;6.552;2023-07-13T14:37:32;6.47;;;1.50;;
51724;SDS011;37801;53.224;6.552;2023-07-13T14:40:25;4.25;;;1.42;;
51724;SDS011;37801;53.224;6.552;2023-07-13T14:43:13;5.15;;;1.35;;
51724;SDS011;37801;53.224;6.552;2023-07-13T14:45:59;4.40;;;1.50;;
51724;SDS011;37801;53.224;6.552;2023-07-13T14:48:45;5.25;;;1.30;;
51724;SDS011;37801;53.224;6.552;2023-07-13T14:51:31;4.28;;;1.20;;
51724;SDS011;37801;53.224;6.552;2023-07-13T14:54:18;5.05;;;1.73;;
51724;SDS011;37801;53.224;6.552;2023-07-13T14:57:04;5.63;;;1.50;;
51724;SDS011;37801;53.224;6.552;2023-07-13T14:59:51;6.70;;;1.50;;
51724;SDS011;37801;53.224;6.552;2023-07-13T15:02:37;5.63;;;1.67;;
51724;SDS011;37801;53.224;6.552;2023-07-13T15:05:27;3.10;;;1.35;;
51724;SDS011;37801;53.224;6.552;2023-07-13T15:08:14;6.28;;;1.90;;
51724;SDS011;37801;53.224;6.552;2023-07-13T15:11:00;3.58;;;1.50;;
51724;SDS011;37801;53.224;6.552;2023-07-13T15:13:46;5.50;;;1.70;;
51724;SDS011;37801;53.224;6.552;2023-07-13T15:16:33;5.35;;;1.60;;
51724;SDS011;37801;53.224;6.552;2023-07-13T15:19:19;6.05;;;1.60;;
51724;SDS011;37801;53.224;6.552;2023-07-13T15:22:07;6.97;;;1.83;;
51724;SDS011;37801;53.224;6.552;2023-07-13T15:24:54;6.07;;;1.58;;
51724;SDS011;37801;53.224;6.552;2023-07-13T15:27:40;5.40;;;1.92;;
51724;SDS011;37801;53.224;6.552;2023-07-13T15:30:29;3.83;;;1.60;;
51724;SDS011;37801;53.224;6.552;2023-07-13T15:33:26;4.60;;;1.60;;
51724;SDS011;37801;53.224;6.552;2023-07-13T15:36:13;5.65;;;1.63;;
51724;SDS011;37801;53.224;6.552;2023-07-13T15:38:59;3.33;;;1.15;;
51724;SDS011;37801;53.224;6.552;2023-07-13T15:41:45;4.72;;;1.70;;
51724;SDS011;37801;53.224;6.552;2023-07-13T15:44:32;3.05;;;1.27;;
51724;SDS011;37801;53.224;6.552;2023-07-13T15:47:18;4.85;;;1.90;;
51724;SDS011;37801;53.224;6.552;2023-07-13T15:50:04;5.15;;;1.33;;
51724;SDS011;37801;53.224;6.552;2023-07-13T15:52:52;5.43;;;1.80;;
51724;SDS011;37801;53.224;6.552;2023-07-13T15:55:39;4.97;;;1.45;;
51724;SDS011;37801;53.224;6.552;2023-07-13T15:58:25;5.38;;;1.48;;
51724;SDS011;37801;53.224;6.552;2023-07-13T16:01:12;9.30;;;2.00;;
51724;SDS011;37801;53.224;6.552;2023-07-13T16:03:58;3.63;;;1.35;;
51724;SDS011;37801;53.224;6.552;2023-07-13T16:06:44;7.57;;;1.50;;
51724;SDS011;37801;53.224;6.552;2023-07-13T16:09:33;5.07;;;1.40;;
51724;SDS011;37801;53.224;6.552;2023-07-13T16:12:20;6.43;;;1.70;;
51724;SDS011;37801;53.224;6.552;2023-07-13T16:15:11;4.13;;;1.77;;
51724;SDS011;37801;53.224;6.552;2023-07-13T16:17:57;4.30;;;1.50;;
51724;SDS011;37801;53.224;6.552;2023-07-13T16:20:46;6.30;;;1.90;;
51724;SDS011;37801;53.224;6.552;2023-07-13T16:23:33;4.63;;;1.70;;
51724;SDS011;37801;53.224;6.552;2023-07-13T16:29:24;5.63;;;1.65;;
51724;SDS011;37801;53.224;6.552;2023-07-13T16:32:12;6.00;;;1.77;;
51724;SDS011;37801;53.224;6.552;2023-07-13T16:35:01;5.80;;;1.95;;
51724;SDS011;37801;53.224;6.552;2023-07-13T16:37:47;5.13;;;1.80;;
51724;SDS011;37801;53.224;6.552;2023-07-13T16:40:33;6.80;;;1.92;;
51724;SDS011;37801;53.224;6.552;2023-07-13T16:43:22;4.38;;;2.00;;
51724;SDS011;37801;53.224;6.552;2023-07-13T16:46:09;6.25;;;1.95;;
51724;SDS011;37801;53.224;6.552;2023-07-13T16:48:56;5.80;;;1.83;;
51724;SDS011;37801;53.224;6.552;2023-07-13T16:51:45;7.60;;;2.22;;
51724;SDS011;37801;53.224;6.552;2023-07-13T16:54:33;5.07;;;1.83;;
51724;SDS011;37801;53.224;6.552;2023-07-13T16:57:23;6.47;;;1.77;;
51724;SDS011;37801;53.224;6.552;2023-07-13T17:03:05;5.85;;;1.70;;
51724;SDS011;37801;53.224;6.552;2023-07-13T17:05:52;5.72;;;1.77;;
51724;SDS011;37801;53.224;6.552;2023-07-13T17:08:38;8.02;;;2.00;;
51724;SDS011;37801;53.224;6.552;2023-07-13T17:11:24;5.25;;;1.83;;
51724;SDS011;37801;53.224;6.552;2023-07-13T17:14:14;6.57;;;2.30;;